sensor_id;sensor_type;location;lat;lon;timestamp;temperature;humidity
75170;SHT31;63749;49.186;9.222;2023-11-21T00:02:20;8.75;94.24
75170;SHT31;63749;49.186;9.222;2023-11-21T00:04:46;8.75;94.18
75170;SHT31;63749;49.186;9.222;2023-11-21T00:07:13;8.77;94.13
75170;SHT31;63749;49.186;9.222;2023-11-21T00:09:38;8.72;94.21
75170;SHT31;63749;49.186;9.222;2023-11-21T00:12:07;8.79;93.78
75170;SHT31;63749;49.186;9.222;2023-11-21T00:14:38;8.80;93.84
75170;SHT31;63749;49.186;9.222;2023-11-21T00:17:05;8.76;94.36
75170;SHT31;63749;49.186;9.222;2023-11-21T00:19:31;8.73;94.06
75170;SHT31;63749;49.186;9.222;2023-11-21T00:21:56;8.75;94.07
75170;SHT31;63749;49.186;9.222;2023-11-21T00:24:23;8.73;94.16
75170;SHT31;63749;49.186;9.222;2023-11-21T00:26:50;8.71;93.75
75170;SHT31;63749;49.186;9.222;2023-11-21T00:29:15;8.68;93.68
75170;SHT31;63749;49.186;9.222;2023-11-21T00:31:44;8.68;93.91
75170;SHT31;63749;49.186;9.222;2023-11-21T00:34:11;8.72;93.68
75170;SHT31;63749;49.186;9.222;2023-11-21T00:36:37;8.69;94.33
75170;SHT31;63749;49.186;9.222;2023-11-21T00:39:03;8.73;94.08
75170;SHT31;63749;49.186;9.222;2023-11-21T00:41:34;8.72;94.27
75170;SHT31;63749;49.186;9.222;2023-11-21T00:44:01;8.66;94.54
75170;SHT31;63749;49.186;9.222;2023-11-21T00:46:28;8.63;94.95
75170;SHT31;63749;49.186;9.222;2023-11-21T00:48:55;8.66;95.12
75170;SHT31;63749;49.186;9.222;2023-11-21T00:51:21;8.71;95.17
75170;SHT31;63749;49.186;9.222;2023-11-21T00:53:47;8.69;95.37
75170;SHT31;63749;49.186;9.222;2023-11-21T00:56:12;8.72;95.03
75170;SHT31;63749;49.186;9.222;2023-11-21T00:58:39;8.83;94.48
75170;SHT31;63749;49.186;9.222;2023-11-21T01:01:10;8.73;94.95
75170;SHT31;63749;49.186;9.222;2023-11-21T01:03:35;8.71;95.10
75170;SHT31;63749;49.186;9.222;2023-11-21T01:06:00;8.68;95.22
75170;SHT31;63749;49.186;9.222;2023-11-21T01:08:27;8.68;95.43
75170;SHT31;63749;49.186;9.222;2023-11-21T01:10:54;8.63;95.56
75170;SHT31;63749;49.186;9.222;2023-11-21T01:13:21;8.69;95.19
75170;SHT31;63749;49.186;9.222;2023-11-21T01:15:48;8.68;95.11
75170;SHT31;63749;49.186;9.222;2023-11-21T01:18:15;8.69;95.06
75170;SHT31;63749;49.186;9.222;2023-11-21T01:20:42;8.68;95.09
75170;SHT31;63749;49.186;9.222;2023-11-21T01:23:12;8.73;94.80
75170;SHT31;63749;49.186;9.222;2023-11-21T01:25:38;8.86;93.98
75170;SHT31;63749;49.186;9.222;2023-11-21T01:28:05;8.86;93.74
75170;SHT31;63749;49.186;9.222;2023-11-21T01:30:32;8.76;94.35
75170;SHT31;63749;49.186;9.222;2023-11-21T01:32:58;8.82;94.11
75170;SHT31;63749;49.186;9.222;2023-11-21T01:35:24;8.80;94.31
75170;SHT31;63749;49.186;9.222;2023-11-21T01:37:54;8.76;94.62
75170;SHT31;63749;49.186;9.222;2023-11-21T01:40:20;8.73;94.94
75170;SHT31;63749;49.186;9.222;2023-11-21T01:42:46;8.80;94.52
75170;SHT31;63749;49.186;9.222;2023-11-21T01:45:13;8.79;94.50
75170;SHT31;63749;49.186;9.222;2023-11-21T01:47:38;8.79;94.71
75170;SHT31;63749;49.186;9.222;2023-11-21T01:50:08;8.86;93.98
75170;SHT31;63749;49.186;9.222;2023-11-21T01:52:35;8.80;94.19
75170;SHT31;63749;49.186;9.222;2023-11-21T01:55:02;8.83;93.75
75170;SHT31;63749;49.186;9.222;2023-11-21T01:57:29;8.86;93.75
75170;SHT31;63749;49.186;9.222;2023-11-21T02:00:01;8.82;94.22
75170;SHT31;63749;49.186;9.222;2023-11-21T02:02:37;8.84;93.68
75170;SHT31;63749;49.186;9.222;2023-11-21T02:05:04;8.82;94.25
75170;SHT31;63749;49.186;9.222;2023-11-21T02:07:29;8.73;94.39
75170;SHT31;63749;49.186;9.222;2023-11-21T02:09:55;8.76;94.39
75170;SHT31;63749;49.186;9.222;2023-11-21T02:12:21;8.76;94.61
75170;SHT31;63749;49.186;9.222;2023-11-21T02:14:48;8.79;94.55
75170;SHT31;63749;49.186;9.222;2023-11-21T02:17:14;8.72;94.82
75170;SHT31;63749;49.186;9.222;2023-11-21T02:19:39;8.72;95.11
75170;SHT31;63749;49.186;9.222;2023-11-21T02:22:08;8.76;94.80
75170;SHT31;63749;49.186;9.222;2023-11-21T02:24:34;8.72;94.99
75170;SHT31;63749;49.186;9.222;2023-11-21T02:27:00;8.77;94.74
75170;SHT31;63749;49.186;9.222;2023-11-21T02:29:26;8.79;94.29
75170;SHT31;63749;49.186;9.222;2023-11-21T02:31:54;8.80;94.28
75170;SHT31;63749;49.186;9.222;2023-11-21T02:34:21;8.75;94.41
75170;SHT31;63749;49.186;9.222;2023-11-21T02:36:48;8.73;94.79
75170;SHT31;63749;49.186;9.222;2023-11-21T02:39:15;8.76;94.87
75170;SHT31;63749;49.186;9.222;2023-11-21T02:41:43;8.79;94.93
75170;SHT31;63749;49.186;9.222;2023-11-21T02:44:09;8.76;94.79
75170;SHT31;63749;49.186;9.222;2023-11-21T02:46:35;8.87;94.41
75170;SHT31;63749;49.186;9.222;2023-11-21T02:49:02;8.89;94.11
75170;SHT31;63749;49.186;9.222;2023-11-21T02:51:27;8.89;94.14
75170;SHT31;63749;49.186;9.222;2023-11-21T02:53:53;8.87;94.19
75170;SHT31;63749;49.186;9.222;2023-11-21T02:56:19;8.87;94.32
75170;SHT31;63749;49.186;9.222;2023-11-21T02:58:45;8.89;94.30
75170;SHT31;63749;49.186;9.222;2023-11-21T03:01:12;8.84;94.67
75170;SHT31;63749;49.186;9.222;2023-11-21T03:03:38;8.86;94.74
75170;SHT31;63749;49.186;9.222;2023-11-21T03:06:07;8.86;94.81
75170;SHT31;63749;49.186;9.222;2023-11-21T03:08:32;8.93;94.18
75170;SHT31;63749;49.186;9.222;2023-11-21T03:10:58;8.92;94.11
75170;SHT31;63749;49.186;9.222;2023-11-21T03:13:23;8.96;94.03
75170;SHT31;63749;49.186;9.222;2023-11-21T03:15:50;8.92;94.26
75170;SHT31;63749;49.186;9.222;2023-11-21T03:18:16;8.93;94.38
75170;SHT31;63749;49.186;9.222;2023-11-21T03:20:43;8.92;94.23
75170;SHT31;63749;49.186;9.222;2023-11-21T03:23:11;8.97;94.12
75170;SHT31;63749;49.186;9.222;2023-11-21T03:25:37;8.97;94.27
75170;SHT31;63749;49.186;9.222;2023-11-21T03:28:02;8.92;94.73
75170;SHT31;63749;49.186;9.222;2023-11-21T03:30:30;8.92;94.46
75170;SHT31;63749;49.186;9.222;2023-11-21T03:32:55;8.96;94.28
75170;SHT31;63749;49.186;9.222;2023-11-21T03:35:23;8.90;94.69
75170;SHT31;63749;49.186;9.222;2023-11-21T03:37:49;8.79;95.09
75170;SHT31;63749;49.186;9.222;2023-11-21T03:40:19;8.77;94.78
75170;SHT31;63749;49.186;9.222;2023-11-21T03:42:46;8.76;95.00
75170;SHT31;63749;49.186;9.222;2023-11-21T03:45:12;8.65;95.30
75170;SHT31;63749;49.186;9.222;2023-11-21T03:47:44;8.63;95.32
75170;SHT31;63749;49.186;9.222;2023-11-21T03:50:10;8.75;95.20
75170;SHT31;63749;49.186;9.222;2023-11-21T03:52:37;8.75;95.15
75170;SHT31;63749;49.186;9.222;2023-11-21T03:55:03;8.82;94.86
75170;SHT31;63749;49.186;9.222;2023-11-21T03:57:30;8.86;94.88
75170;SHT31;63749;49.186;9.222;2023-11-21T03:59:57;8.86;95.08
75170;SHT31;63749;49.186;9.222;2023-11-21T04:02:23;8.92;95.04
75170;SHT31;63749;49.186;9.222;2023-11-21T04:05:05;8.90;94.95
75170;SHT31;63749;49.186;9.222;2023-11-21T04:07:32;8.89;94.95
75170;SHT31;63749;49.186;9.222;2023-11-21T04:10:00;8.89;94.85
75170;SHT31;63749;49.186;9.222;2023-11-21T04:12:27;8.89;94.76
75170;SHT31;63749;49.186;9.222;2023-11-21T04:14:53;8.86;95.21
75170;SHT31;63749;49.186;9.222;2023-11-21T04:17:20;8.84;95.05
75170;SHT31;63749;49.186;9.222;2023-11-21T04:19:46;8.89;95.00
75170;SHT31;63749;49.186;9.222;2023-11-21T04:22:12;8.96;94.54
75170;SHT31;63749;49.186;9.222;2023-11-21T04:24:37;9.00;94.45
75170;SHT31;63749;49.186;9.222;2023-11-21T04:27:03;8.99;94.36
75170;SHT31;63749;49.186;9.222;2023-11-21T04:29:28;8.93;94.95
75170;SHT31;63749;49.186;9.222;2023-11-21T04:31:55;8.90;94.92
75170;SHT31;63749;49.186;9.222;2023-11-21T04:34:20;8.93;94.79
75170;SHT31;63749;49.186;9.222;2023-11-21T04:36:45;8.93;94.92
75170;SHT31;63749;49.186;9.222;2023-11-21T04:39:12;8.90;95.00
75170;SHT31;63749;49.186;9.222;2023-11-21T04:41:38;8.89;95.06
75170;SHT31;63749;49.186;9.222;2023-11-21T04:44:05;8.93;95.04
75170;SHT31;63749;49.186;9.222;2023-11-21T04:46:31;8.90;95.21
75170;SHT31;63749;49.186;9.222;2023-11-21T04:48:57;8.90;95.26
75170;SHT31;63749;49.186;9.222;2023-11-21T04:51:25;8.93;95.19
75170;SHT31;63749;49.186;9.222;2023-11-21T04:53:51;8.94;95.21
75170;SHT31;63749;49.186;9.222;2023-11-21T04:56:16;8.94;95.13
75170;SHT31;63749;49.186;9.222;2023-11-21T04:58:42;9.06;94.51
75170;SHT31;63749;49.186;9.222;2023-11-21T05:01:08;9.07;94.80
75170;SHT31;63749;49.186;9.222;2023-11-21T05:03:33;9.04;94.94
75170;SHT31;63749;49.186;9.222;2023-11-21T05:06:02;9.02;95.44
75170;SHT31;63749;49.186;9.222;2023-11-21T05:08:30;8.97;95.76
75170;SHT31;63749;49.186;9.222;2023-11-21T05:10:56;9.00;95.83
75170;SHT31;63749;49.186;9.222;2023-11-21T05:13:24;8.93;96.27
75170;SHT31;63749;49.186;9.222;2023-11-21T05:15:54;8.90;96.38
75170;SHT31;63749;49.186;9.222;2023-11-21T05:18:21;8.92;96.61
75170;SHT31;63749;49.186;9.222;2023-11-21T05:20:48;8.94;96.54
75170;SHT31;63749;49.186;9.222;2023-11-21T05:23:15;8.93;96.63
75170;SHT31;63749;49.186;9.222;2023-11-21T05:25:40;8.89;96.95
75170;SHT31;63749;49.186;9.222;2023-11-21T05:28:06;8.90;96.78
75170;SHT31;63749;49.186;9.222;2023-11-21T05:30:32;8.92;97.03
75170;SHT31;63749;49.186;9.222;2023-11-21T05:32:57;8.94;96.93
75170;SHT31;63749;49.186;9.222;2023-11-21T05:35:23;8.90;97.14
75170;SHT31;63749;49.186;9.222;2023-11-21T05:37:48;8.90;97.23
75170;SHT31;63749;49.186;9.222;2023-11-21T05:40:14;8.92;97.27
75170;SHT31;63749;49.186;9.222;2023-11-21T05:42:40;8.92;97.11
75170;SHT31;63749;49.186;9.222;2023-11-21T05:45:06;9.03;96.63
75170;SHT31;63749;49.186;9.222;2023-11-21T05:47:45;9.03;96.80
75170;SHT31;63749;49.186;9.222;2023-11-21T05:50:12;9.04;96.59
75170;SHT31;63749;49.186;9.222;2023-11-21T05:52:40;9.04;96.94
75170;SHT31;63749;49.186;9.222;2023-11-21T05:55:06;9.02;97.06
75170;SHT31;63749;49.186;9.222;2023-11-21T05:57:36;8.99;97.51
75170;SHT31;63749;49.186;9.222;2023-11-21T06:00:12;8.93;97.68
75170;SHT31;63749;49.186;9.222;2023-11-21T06:02:49;8.96;97.52
75170;SHT31;63749;49.186;9.222;2023-11-21T06:05:17;9.00;97.37
75170;SHT31;63749;49.186;9.222;2023-11-21T06:07:43;9.02;97.29
75170;SHT31;63749;49.186;9.222;2023-11-21T06:10:10;9.09;97.14
75170;SHT31;63749;49.186;9.222;2023-11-21T06:12:37;9.10;96.89
75170;SHT31;63749;49.186;9.222;2023-11-21T06:15:03;9.10;97.03
75170;SHT31;63749;49.186;9.222;2023-11-21T06:17:31;9.04;97.31
75170;SHT31;63749;49.186;9.222;2023-11-21T06:19:57;9.06;97.11
75170;SHT31;63749;49.186;9.222;2023-11-21T06:22:23;8.94;97.58
75170;SHT31;63749;49.186;9.222;2023-11-21T06:24:48;8.90;97.80
75170;SHT31;63749;49.186;9.222;2023-11-21T06:27:15;8.96;97.71
75170;SHT31;63749;49.186;9.222;2023-11-21T06:29:41;9.03;97.85
75170;SHT31;63749;49.186;9.222;2023-11-21T06:32:07;9.10;97.49
75170;SHT31;63749;49.186;9.222;2023-11-21T06:34:36;9.10;97.28
75170;SHT31;63749;49.186;9.222;2023-11-21T06:37:11;9.09;97.44
75170;SHT31;63749;49.186;9.222;2023-11-21T06:39:37;9.04;97.55
75170;SHT31;63749;49.186;9.222;2023-11-21T06:42:03;9.19;97.77
75170;SHT31;63749;49.186;9.222;2023-11-21T06:44:29;9.30;97.37
75170;SHT31;63749;49.186;9.222;2023-11-21T06:46:54;9.19;97.42
75170;SHT31;63749;49.186;9.222;2023-11-21T06:49:20;9.22;97.51
75170;SHT31;63749;49.186;9.222;2023-11-21T06:51:45;9.23;97.37
75170;SHT31;63749;49.186;9.222;2023-11-21T06:54:11;9.22;97.36
75170;SHT31;63749;49.186;9.222;2023-11-21T06:56:36;9.27;97.17
75170;SHT31;63749;49.186;9.222;2023-11-21T06:59:01;9.24;96.94
75170;SHT31;63749;49.186;9.222;2023-11-21T07:01:28;9.28;96.94
75170;SHT31;63749;49.186;9.222;2023-11-21T07:03:53;9.28;97.02
75170;SHT31;63749;49.186;9.222;2023-11-21T07:06:18;9.30;97.25
75170;SHT31;63749;49.186;9.222;2023-11-21T07:08:44;9.30;97.17
75170;SHT31;63749;49.186;9.222;2023-11-21T07:11:09;9.34;97.36
75170;SHT31;63749;49.186;9.222;2023-11-21T07:13:35;9.28;97.04
75170;SHT31;63749;49.186;9.222;2023-11-21T07:16:01;9.31;97.16
75170;SHT31;63749;49.186;9.222;2023-11-21T07:18:26;9.35;97.20
75170;SHT31;63749;49.186;9.222;2023-11-21T07:20:51;9.30;97.10
75170;SHT31;63749;49.186;9.222;2023-11-21T07:23:17;9.31;97.02
75170;SHT31;63749;49.186;9.222;2023-11-21T07:25:42;9.34;96.79
75170;SHT31;63749;49.186;9.222;2023-11-21T07:28:08;9.33;96.31
75170;SHT31;63749;49.186;9.222;2023-11-21T07:30:33;9.44;95.97
75170;SHT31;63749;49.186;9.222;2023-11-21T07:32:59;9.33;96.27
75170;SHT31;63749;49.186;9.222;2023-11-21T07:35:24;9.35;96.42
75170;SHT31;63749;49.186;9.222;2023-11-21T07:37:49;9.33;96.28
75170;SHT31;63749;49.186;9.222;2023-11-21T07:40:15;9.38;95.99
75170;SHT31;63749;49.186;9.222;2023-11-21T07:42:42;9.37;96.04
75170;SHT31;63749;49.186;9.222;2023-11-21T07:45:08;9.35;96.28
75170;SHT31;63749;49.186;9.222;2023-11-21T07:47:33;9.40;96.14
75170;SHT31;63749;49.186;9.222;2023-11-21T07:50:02;9.43;96.01
75170;SHT31;63749;49.186;9.222;2023-11-21T07:52:28;9.47;96.03
75170;SHT31;63749;49.186;9.222;2023-11-21T07:54:53;9.52;96.07
75170;SHT31;63749;49.186;9.222;2023-11-21T07:57:18;9.55;95.86
75170;SHT31;63749;49.186;9.222;2023-11-21T07:59:44;9.58;95.20
75170;SHT31;63749;49.186;9.222;2023-11-21T08:02:09;9.64;95.50
75170;SHT31;63749;49.186;9.222;2023-11-21T08:04:35;9.62;95.53
75170;SHT31;63749;49.186;9.222;2023-11-21T08:07:01;9.62;95.48
75170;SHT31;63749;49.186;9.222;2023-11-21T08:09:26;9.61;95.42
75170;SHT31;63749;49.186;9.222;2023-11-21T08:11:52;9.62;94.97
75170;SHT31;63749;49.186;9.222;2023-11-21T08:14:18;9.59;95.00
75170;SHT31;63749;49.186;9.222;2023-11-21T08:16:44;9.67;94.75
75170;SHT31;63749;49.186;9.222;2023-11-21T08:19:10;9.67;94.65
75170;SHT31;63749;49.186;9.222;2023-11-21T08:21:36;9.68;94.68
75170;SHT31;63749;49.186;9.222;2023-11-21T08:24:03;9.67;94.72
75170;SHT31;63749;49.186;9.222;2023-11-21T08:26:29;9.68;94.87
75170;SHT31;63749;49.186;9.222;2023-11-21T08:28:55;9.70;95.31
75170;SHT31;63749;49.186;9.222;2023-11-21T08:31:25;9.67;95.48
75170;SHT31;63749;49.186;9.222;2023-11-21T08:33:51;9.70;95.35
75170;SHT31;63749;49.186;9.222;2023-11-21T08:36:16;9.74;95.37
75170;SHT31;63749;49.186;9.222;2023-11-21T08:38:41;9.75;95.06
75170;SHT31;63749;49.186;9.222;2023-11-21T08:41:07;9.79;95.42
75170;SHT31;63749;49.186;9.222;2023-11-21T08:43:36;9.81;95.42
75170;SHT31;63749;49.186;9.222;2023-11-21T08:46:08;9.85;95.19
75170;SHT31;63749;49.186;9.222;2023-11-21T08:48:38;9.99;94.74
75170;SHT31;63749;49.186;9.222;2023-11-21T08:51:04;9.96;94.26
75170;SHT31;63749;49.186;9.222;2023-11-21T08:53:29;10.08;94.15
75170;SHT31;63749;49.186;9.222;2023-11-21T08:55:56;10.16;93.53
75170;SHT31;63749;49.186;9.222;2023-11-21T08:58:21;10.28;93.44
75170;SHT31;63749;49.186;9.222;2023-11-21T09:00:47;10.24;93.40
75170;SHT31;63749;49.186;9.222;2023-11-21T09:03:13;10.33;93.04
75170;SHT31;63749;49.186;9.222;2023-11-21T09:05:39;10.37;93.28
75170;SHT31;63749;49.186;9.222;2023-11-21T09:08:04;10.70;93.86
75170;SHT31;63749;49.186;9.222;2023-11-21T09:10:30;10.67;92.86
75170;SHT31;63749;49.186;9.222;2023-11-21T09:12:55;10.78;92.88
75170;SHT31;63749;49.186;9.222;2023-11-21T09:15:21;10.78;92.10
75170;SHT31;63749;49.186;9.222;2023-11-21T09:17:46;10.82;91.96
75170;SHT31;63749;49.186;9.222;2023-11-21T09:20:12;11.08;91.58
75170;SHT31;63749;49.186;9.222;2023-11-21T09:22:39;11.15;91.40
75170;SHT31;63749;49.186;9.222;2023-11-21T09:25:05;11.28;90.69
75170;SHT31;63749;49.186;9.222;2023-11-21T09:27:32;11.32;90.27
75170;SHT31;63749;49.186;9.222;2023-11-21T09:29:57;11.40;90.00
75170;SHT31;63749;49.186;9.222;2023-11-21T09:32:23;11.56;91.03
75170;SHT31;63749;49.186;9.222;2023-11-21T09:34:49;11.60;89.12
75170;SHT31;63749;49.186;9.222;2023-11-21T09:37:15;11.44;89.30
75170;SHT31;63749;49.186;9.222;2023-11-21T09:39:41;11.39;88.36
75170;SHT31;63749;49.186;9.222;2023-11-21T09:42:16;11.22;89.53
75170;SHT31;63749;49.186;9.222;2023-11-21T09:47:30;11.08;89.57
75170;SHT31;63749;49.186;9.222;2023-11-21T09:49:56;10.97;90.10
75170;SHT31;63749;49.186;9.222;2023-11-21T09:52:26;10.90;90.21
75170;SHT31;63749;49.186;9.222;2023-11-21T09:54:54;10.82;90.53
75170;SHT31;63749;49.186;9.222;2023-11-21T09:57:23;10.74;91.19
75170;SHT31;63749;49.186;9.222;2023-11-21T09:59:51;10.63;91.45
75170;SHT31;63749;49.186;9.222;2023-11-21T10:02:18;10.56;92.17
75170;SHT31;63749;49.186;9.222;2023-11-21T10:04:46;10.49;92.25
75170;SHT31;63749;49.186;9.222;2023-11-21T10:07:13;10.43;92.81
75170;SHT31;63749;49.186;9.222;2023-11-21T10:09:41;10.39;93.01
75170;SHT31;63749;49.186;9.222;2023-11-21T10:12:07;10.36;93.31
75170;SHT31;63749;49.186;9.222;2023-11-21T10:14:36;10.33;93.62
75170;SHT31;63749;49.186;9.222;2023-11-21T10:17:02;10.29;93.07
75170;SHT31;63749;49.186;9.222;2023-11-21T10:19:29;10.36;93.13
75170;SHT31;63749;49.186;9.222;2023-11-21T10:21:55;10.40;93.03
75170;SHT31;63749;49.186;9.222;2023-11-21T10:24:22;10.47;93.31
75170;SHT31;63749;49.186;9.222;2023-11-21T10:26:48;10.50;93.57
75170;SHT31;63749;49.186;9.222;2023-11-21T10:29:14;10.44;93.35
75170;SHT31;63749;49.186;9.222;2023-11-21T10:31:43;10.49;93.42
75170;SHT31;63749;49.186;9.222;2023-11-21T10:34:13;10.54;93.02
75170;SHT31;63749;49.186;9.222;2023-11-21T10:36:39;10.54;91.63
75170;SHT31;63749;49.186;9.222;2023-11-21T10:39:05;10.64;91.51
75170;SHT31;63749;49.186;9.222;2023-11-21T10:41:31;10.82;91.31
75170;SHT31;63749;49.186;9.222;2023-11-21T10:43:58;10.81;90.72
75170;SHT31;63749;49.186;9.222;2023-11-21T10:46:23;10.92;90.50
75170;SHT31;63749;49.186;9.222;2023-11-21T10:48:54;11.02;90.09
75170;SHT31;63749;49.186;9.222;2023-11-21T10:51:22;11.02;89.66
75170;SHT31;63749;49.186;9.222;2023-11-21T10:53:51;11.04;89.62
75170;SHT31;63749;49.186;9.222;2023-11-21T10:56:18;11.18;89.35
75170;SHT31;63749;49.186;9.222;2023-11-21T10:58:49;11.08;88.76
75170;SHT31;63749;49.186;9.222;2023-11-21T11:01:17;11.19;88.29
75170;SHT31;63749;49.186;9.222;2023-11-21T11:03:44;11.16;87.98
75170;SHT31;63749;49.186;9.222;2023-11-21T11:06:10;11.19;88.68
75170;SHT31;63749;49.186;9.222;2023-11-21T11:08:39;11.18;87.69
75170;SHT31;63749;49.186;9.222;2023-11-21T11:11:10;11.22;87.47
75170;SHT31;63749;49.186;9.222;2023-11-21T11:13:37;11.47;86.86
75170;SHT31;63749;49.186;9.222;2023-11-21T11:16:04;11.43;86.25
75170;SHT31;63749;49.186;9.222;2023-11-21T11:18:32;11.42;86.50
75170;SHT31;63749;49.186;9.222;2023-11-21T11:24:05;11.66;86.25
75170;SHT31;63749;49.186;9.222;2023-11-21T11:30:04;11.84;85.33
75170;SHT31;63749;49.186;9.222;2023-11-21T11:32:51;11.67;85.44
75170;SHT31;63749;49.186;9.222;2023-11-21T11:38:05;11.59;85.03
75170;SHT31;63749;49.186;9.222;2023-11-21T11:40:41;11.56;85.31
75170;SHT31;63749;49.186;9.222;2023-11-21T11:43:08;11.67;84.95
75170;SHT31;63749;49.186;9.222;2023-11-21T11:45:34;11.65;84.54
75170;SHT31;63749;49.186;9.222;2023-11-21T11:48:11;11.62;84.35
75170;SHT31;63749;49.186;9.222;2023-11-21T11:50:43;11.62;84.83
75170;SHT31;63749;49.186;9.222;2023-11-21T11:53:33;11.66;85.48
75170;SHT31;63749;49.186;9.222;2023-11-21T11:58:44;11.91;84.03
75170;SHT31;63749;49.186;9.222;2023-11-21T12:01:11;11.94;84.54
75170;SHT31;63749;49.186;9.222;2023-11-21T12:03:37;12.05;84.17
75170;SHT31;63749;49.186;9.222;2023-11-21T12:06:02;12.27;83.98
75170;SHT31;63749;49.186;9.222;2023-11-21T12:08:28;12.13;83.09
75170;SHT31;63749;49.186;9.222;2023-11-21T12:10:56;12.16;83.04
75170;SHT31;63749;49.186;9.222;2023-11-21T12:13:22;12.08;83.32
75170;SHT31;63749;49.186;9.222;2023-11-21T12:15:48;12.32;83.07
75170;SHT31;63749;49.186;9.222;2023-11-21T12:18:14;12.44;82.87
75170;SHT31;63749;49.186;9.222;2023-11-21T12:20:39;12.31;82.09
75170;SHT31;63749;49.186;9.222;2023-11-21T12:23:06;12.28;82.60
75170;SHT31;63749;49.186;9.222;2023-11-21T12:25:32;12.49;82.41
75170;SHT31;63749;49.186;9.222;2023-11-21T12:27:59;12.45;81.55
75170;SHT31;63749;49.186;9.222;2023-11-21T12:30:29;12.18;82.39
75170;SHT31;63749;49.186;9.222;2023-11-21T12:32:59;12.21;82.56
75170;SHT31;63749;49.186;9.222;2023-11-21T12:35:31;12.07;83.04
75170;SHT31;63749;49.186;9.222;2023-11-21T12:37:59;12.16;83.71
75170;SHT31;63749;49.186;9.222;2023-11-21T12:40:25;12.07;83.69
75170;SHT31;63749;49.186;9.222;2023-11-21T12:42:59;12.21;83.30
75170;SHT31;63749;49.186;9.222;2023-11-21T12:45:28;12.20;83.18
75170;SHT31;63749;49.186;9.222;2023-11-21T12:48:02;12.05;83.75
75170;SHT31;63749;49.186;9.222;2023-11-21T12:50:32;12.21;83.55
75170;SHT31;63749;49.186;9.222;2023-11-21T12:53:03;12.11;83.75
75170;SHT31;63749;49.186;9.222;2023-11-21T12:55:34;12.02;82.98
75170;SHT31;63749;49.186;9.222;2023-11-21T12:58:04;11.83;83.41
75170;SHT31;63749;49.186;9.222;2023-11-21T13:00:45;11.86;84.08
75170;SHT31;63749;49.186;9.222;2023-11-21T13:03:14;11.86;83.62
75170;SHT31;63749;49.186;9.222;2023-11-21T13:05:47;11.93;83.13
75170;SHT31;63749;49.186;9.222;2023-11-21T13:08:16;11.81;83.52
75170;SHT31;63749;49.186;9.222;2023-11-21T13:10:45;11.73;83.29
75170;SHT31;63749;49.186;9.222;2023-11-21T13:13:12;11.77;83.46
75170;SHT31;63749;49.186;9.222;2023-11-21T13:15:53;11.69;83.69
75170;SHT31;63749;49.186;9.222;2023-11-21T13:18:20;11.52;83.91
75170;SHT31;63749;49.186;9.222;2023-11-21T13:20:47;11.50;84.04
75170;SHT31;63749;49.186;9.222;2023-11-21T13:23:14;11.52;84.64
75170;SHT31;63749;49.186;9.222;2023-11-21T13:25:44;11.49;84.77
75170;SHT31;63749;49.186;9.222;2023-11-21T13:28:11;11.25;85.50
75170;SHT31;63749;49.186;9.222;2023-11-21T13:30:36;11.11;85.66
75170;SHT31;63749;49.186;9.222;2023-11-21T13:33:03;11.02;84.95
75170;SHT31;63749;49.186;9.222;2023-11-21T13:35:34;10.90;85.53
75170;SHT31;63749;49.186;9.222;2023-11-21T13:38:09;10.82;85.79
75170;SHT31;63749;49.186;9.222;2023-11-21T13:40:36;10.72;85.99
75170;SHT31;63749;49.186;9.222;2023-11-21T13:43:08;10.77;85.89
75170;SHT31;63749;49.186;9.222;2023-11-21T13:45:36;10.81;86.25
75170;SHT31;63749;49.186;9.222;2023-11-21T13:48:02;10.81;86.52
75170;SHT31;63749;49.186;9.222;2023-11-21T13:50:27;10.82;86.12
75170;SHT31;63749;49.186;9.222;2023-11-21T13:52:59;10.91;85.88
75170;SHT31;63749;49.186;9.222;2023-11-21T13:55:34;10.91;85.85
75170;SHT31;63749;49.186;9.222;2023-11-21T13:58:01;10.92;85.94
75170;SHT31;63749;49.186;9.222;2023-11-21T14:00:31;12.60;81.31
75170;SHT31;63749;49.186;9.222;2023-11-21T14:03:07;14.06;76.63
75170;SHT31;63749;49.186;9.222;2023-11-21T14:05:42;13.90;76.65
75170;SHT31;63749;49.186;9.222;2023-11-21T14:08:10;15.28;73.03
75170;SHT31;63749;49.186;9.222;2023-11-21T14:10:37;15.98;70.32
75170;SHT31;63749;49.186;9.222;2023-11-21T14:13:09;17.03;68.66
75170;SHT31;63749;49.186;9.222;2023-11-21T14:15:39;17.51;65.35
75170;SHT31;63749;49.186;9.222;2023-11-21T14:18:10;18.32;63.27
75170;SHT31;63749;49.186;9.222;2023-11-21T14:20:40;18.09;62.79
75170;SHT31;63749;49.186;9.222;2023-11-21T14:23:06;18.05;63.11
75170;SHT31;63749;49.186;9.222;2023-11-21T14:25:34;18.28;61.75
75170;SHT31;63749;49.186;9.222;2023-11-21T14:28:02;17.14;64.20
75170;SHT31;63749;49.186;9.222;2023-11-21T14:30:29;17.79;62.51
75170;SHT31;63749;49.186;9.222;2023-11-21T14:32:57;17.85;62.13
75170;SHT31;63749;49.186;9.222;2023-11-21T14:35:23;17.64;62.19
75170;SHT31;63749;49.186;9.222;2023-11-21T14:37:48;17.38;61.83
75170;SHT31;63749;49.186;9.222;2023-11-21T14:40:14;16.59;63.70
75170;SHT31;63749;49.186;9.222;2023-11-21T14:42:42;15.01;68.42
75170;SHT31;63749;49.186;9.222;2023-11-21T14:45:08;14.12;70.49
75170;SHT31;63749;49.186;9.222;2023-11-21T14:47:33;13.37;73.34
75170;SHT31;63749;49.186;9.222;2023-11-21T14:50:02;12.87;74.53
75170;SHT31;63749;49.186;9.222;2023-11-21T14:52:48;12.46;76.11
75170;SHT31;63749;49.186;9.222;2023-11-21T14:55:24;12.07;77.18
75170;SHT31;63749;49.186;9.222;2023-11-21T14:57:57;11.67;78.66
75170;SHT31;63749;49.186;9.222;2023-11-21T15:00:56;11.56;79.28
75170;SHT31;63749;49.186;9.222;2023-11-21T15:03:26;11.32;80.11
75170;SHT31;63749;49.186;9.222;2023-11-21T15:06:13;11.09;81.38
75170;SHT31;63749;49.186;9.222;2023-11-21T15:08:53;10.87;82.78
75170;SHT31;63749;49.186;9.222;2023-11-21T15:11:30;10.75;82.59
75170;SHT31;63749;49.186;9.222;2023-11-21T15:13:56;10.63;83.18
75170;SHT31;63749;49.186;9.222;2023-11-21T15:16:22;10.60;83.28
75170;SHT31;63749;49.186;9.222;2023-11-21T15:18:47;10.49;83.22
75170;SHT31;63749;49.186;9.222;2023-11-21T15:21:13;10.51;82.56
75170;SHT31;63749;49.186;9.222;2023-11-21T15:23:38;10.41;82.79
75170;SHT31;63749;49.186;9.222;2023-11-21T15:26:06;10.30;83.27
75170;SHT31;63749;49.186;9.222;2023-11-21T15:28:33;10.28;83.19
75170;SHT31;63749;49.186;9.222;2023-11-21T15:30:59;10.19;83.04
75170;SHT31;63749;49.186;9.222;2023-11-21T15:33:24;10.14;83.67
75170;SHT31;63749;49.186;9.222;2023-11-21T15:35:52;10.06;83.85
75170;SHT31;63749;49.186;9.222;2023-11-21T15:38:19;10.08;83.42
75170;SHT31;63749;49.186;9.222;2023-11-21T15:40:45;10.12;82.97
75170;SHT31;63749;49.186;9.222;2023-11-21T15:43:11;10.13;82.94
75170;SHT31;63749;49.186;9.222;2023-11-21T15:45:38;10.13;82.76
75170;SHT31;63749;49.186;9.222;2023-11-21T15:48:05;10.12;82.31
75170;SHT31;63749;49.186;9.222;2023-11-21T15:50:30;10.13;82.28
75170;SHT31;63749;49.186;9.222;2023-11-21T15:52:56;10.12;82.33
75170;SHT31;63749;49.186;9.222;2023-11-21T15:55:23;10.09;82.35
75170;SHT31;63749;49.186;9.222;2023-11-21T15:57:49;10.09;82.55